<?xml version="1.0" encoding="UTF-8" standalone="no" ?>
<gpx xmlns="http://www.topografix.com/GPX/1/1" xmlns:xsi="http://www.w3.org/2001/XMLSchema-instance" xsi:schemaLocation="http://www.topografix.com/GPX/1/1 http://www.topografix.com/GPX/1/1/gpx.xsd" version="1.1" creator="VisuGPX - https://www.visugpx.com">
  <metadata>
    <name>VTT - Jouques Concors</name>
    <desc><![CDATA[Belle montée à Concors puis portage sur l\'autre versant et descente pas facile.]]></desc>
  </metadata>
  <trk>
    <name><![CDATA[VTT - Jouques Concors]]></name>
    <trkseg>
      <trkpt lat="43.63699" lon="5.63842">
        <ele>271.20001220703</ele>
        <time>2013-01-26T08:44:24.000Z</time>
      </trkpt>
      <trkpt lat="43.63713" lon="5.63907">
        <ele>272.60000610352</ele>
        <time>2013-01-26T08:46:33.000Z</time>
      </trkpt>
      <trkpt lat="43.6372" lon="5.63972">
        <ele>273.60000610352</ele>
        <time>2013-01-26T08:46:52.000Z</time>
      </trkpt>
      <trkpt lat="43.63723" lon="5.64036">
        <ele>273.79998779297</ele>
        <time>2013-01-26T08:47:08.000Z</time>
      </trkpt>
      <trkpt lat="43.63717" lon="5.64102">
        <ele>273.20001220703</ele>
        <time>2013-01-26T08:47:23.000Z</time>
      </trkpt>
      <trkpt lat="43.63702" lon="5.64166">
        <ele>271.39999389648</ele>
        <time>2013-01-26T08:47:38.000Z</time>
      </trkpt>
      <trkpt lat="43.63688" lon="5.6423">
        <ele>269.60000610352</ele>
        <time>2013-01-26T08:47:50.000Z</time>
      </trkpt>
      <trkpt lat="43.63663" lon="5.64287">
        <ele>266.79998779297</ele>
        <time>2013-01-26T08:48:01.000Z</time>
      </trkpt>
      <trkpt lat="43.63615" lon="5.64298">
        <ele>266.79998779297</ele>
        <time>2013-01-26T08:48:13.000Z</time>
      </trkpt>
      <trkpt lat="43.63568" lon="5.643">
        <ele>267.60000610352</ele>
        <time>2013-01-26T08:48:24.000Z</time>
      </trkpt>
      <trkpt lat="43.6352" lon="5.643">
        <ele>270</ele>
        <time>2013-01-26T08:48:35.000Z</time>
      </trkpt>
      <trkpt lat="43.63475" lon="5.64319">
        <ele>272.60000610352</ele>
        <time>2013-01-26T08:48:46.000Z</time>
      </trkpt>
      <trkpt lat="43.63427" lon="5.64335">
        <ele>272.60000610352</ele>
        <time>2013-01-26T08:48:57.000Z</time>
      </trkpt>
      <trkpt lat="43.63379" lon="5.6434">
        <ele>271</ele>
        <time>2013-01-26T08:49:08.000Z</time>
      </trkpt>
      <trkpt lat="43.63332" lon="5.64333">
        <ele>267.79998779297</ele>
        <time>2013-01-26T08:49:19.000Z</time>
      </trkpt>
      <trkpt lat="43.63302" lon="5.64379">
        <ele>269</ele>
        <time>2013-01-26T08:49:31.000Z</time>
      </trkpt>
      <trkpt lat="43.63257" lon="5.64381">
        <ele>266.79998779297</ele>
        <time>2013-01-26T08:49:42.000Z</time>
      </trkpt>
      <trkpt lat="43.63214" lon="5.64401">
        <ele>266.79998779297</ele>
        <time>2013-01-26T08:49:54.000Z</time>
      </trkpt>
      <trkpt lat="43.63173" lon="5.64431">
        <ele>267</ele>
        <time>2013-01-26T08:50:06.000Z</time>
      </trkpt>
      <trkpt lat="43.63129" lon="5.64453">
        <ele>268.79998779297</ele>
        <time>2013-01-26T08:50:19.000Z</time>
      </trkpt>
      <trkpt lat="43.63084" lon="5.64464">
        <ele>271.20001220703</ele>
        <time>2013-01-26T08:50:33.000Z</time>
      </trkpt>
      <trkpt lat="43.63039" lon="5.64472">
        <ele>275.39999389648</ele>
        <time>2013-01-26T08:50:47.000Z</time>
      </trkpt>
      <trkpt lat="43.62994" lon="5.64475">
        <ele>279</ele>
        <time>2013-01-26T08:51:01.000Z</time>
      </trkpt>
      <trkpt lat="43.62949" lon="5.6448">
        <ele>281.20001220703</ele>
        <time>2013-01-26T08:51:15.000Z</time>
      </trkpt>
      <trkpt lat="43.62904" lon="5.64492">
        <ele>283.79998779297</ele>
        <time>2013-01-26T08:51:29.000Z</time>
      </trkpt>
      <trkpt lat="43.62865" lon="5.64525">
        <ele>288.39999389648</ele>
        <time>2013-01-26T08:51:43.000Z</time>
      </trkpt>
      <trkpt lat="43.62835" lon="5.64572">
        <ele>291.60000610352</ele>
        <time>2013-01-26T08:51:59.000Z</time>
      </trkpt>
      <trkpt lat="43.6281" lon="5.64625">
        <ele>297.60000610352</ele>
        <time>2013-01-26T08:52:15.000Z</time>
      </trkpt>
      <trkpt lat="43.62784" lon="5.64676">
        <ele>301</ele>
        <time>2013-01-26T08:52:30.000Z</time>
      </trkpt>
      <trkpt lat="43.62757" lon="5.6473">
        <ele>302.39999389648</ele>
        <time>2013-01-26T08:52:45.000Z</time>
      </trkpt>
      <trkpt lat="43.62731" lon="5.64785">
        <ele>305.60000610352</ele>
        <time>2013-01-26T08:53:00.000Z</time>
      </trkpt>
      <trkpt lat="43.62697" lon="5.64826">
        <ele>307.39999389648</ele>
        <time>2013-01-26T08:53:15.000Z</time>
      </trkpt>
      <trkpt lat="43.62668" lon="5.64782">
        <ele>305.60000610352</ele>
        <time>2013-01-26T08:53:30.000Z</time>
      </trkpt>
      <trkpt lat="43.62649" lon="5.64725">
        <ele>307.20001220703</ele>
        <time>2013-01-26T08:53:46.000Z</time>
      </trkpt>
      <trkpt lat="43.62618" lon="5.64676">
        <ele>309</ele>
        <time>2013-01-26T08:54:01.000Z</time>
      </trkpt>
      <trkpt lat="43.62572" lon="5.6466">
        <ele>307.79998779297</ele>
        <time>2013-01-26T08:54:13.000Z</time>
      </trkpt>
      <trkpt lat="43.6252" lon="5.64659">
        <ele>304</ele>
        <time>2013-01-26T08:54:21.000Z</time>
      </trkpt>
      <trkpt lat="43.62475" lon="5.6466">
        <ele>300.79998779297</ele>
        <time>2013-01-26T08:54:27.000Z</time>
      </trkpt>
      <trkpt lat="43.62424" lon="5.64677">
        <ele>298.60000610352</ele>
        <time>2013-01-26T08:54:34.000Z</time>
      </trkpt>
      <trkpt lat="43.62374" lon="5.64692">
        <ele>299.39999389648</ele>
        <time>2013-01-26T08:54:41.000Z</time>
      </trkpt>
      <trkpt lat="43.62328" lon="5.64705">
        <ele>299.79998779297</ele>
        <time>2013-01-26T08:54:48.000Z</time>
      </trkpt>
      <trkpt lat="43.62285" lon="5.64701">
        <ele>298.20001220703</ele>
        <time>2013-01-26T08:54:55.000Z</time>
      </trkpt>
      <trkpt lat="43.62242" lon="5.64665">
        <ele>296.39999389648</ele>
        <time>2013-01-26T08:55:05.000Z</time>
      </trkpt>
      <trkpt lat="43.62203" lon="5.64635">
        <ele>298</ele>
        <time>2013-01-26T08:55:14.000Z</time>
      </trkpt>
      <trkpt lat="43.62159" lon="5.64609">
        <ele>299.39999389648</ele>
        <time>2013-01-26T08:55:24.000Z</time>
      </trkpt>
      <trkpt lat="43.62114" lon="5.64594">
        <ele>299.60000610352</ele>
        <time>2013-01-26T08:55:35.000Z</time>
      </trkpt>
      <trkpt lat="43.62065" lon="5.64596">
        <ele>300.79998779297</ele>
        <time>2013-01-26T08:55:46.000Z</time>
      </trkpt>
      <trkpt lat="43.62018" lon="5.64583">
        <ele>301.39999389648</ele>
        <time>2013-01-26T08:55:57.000Z</time>
      </trkpt>
      <trkpt lat="43.61995" lon="5.64634">
        <ele>301.79998779297</ele>
        <time>2013-01-26T08:56:08.000Z</time>
      </trkpt>
      <trkpt lat="43.61963" lon="5.64684">
        <ele>303.20001220703</ele>
        <time>2013-01-26T08:56:19.000Z</time>
      </trkpt>
      <trkpt lat="43.61924" lon="5.64721">
        <ele>305</ele>
        <time>2013-01-26T08:56:30.000Z</time>
      </trkpt>
      <trkpt lat="43.61892" lon="5.64766">
        <ele>307.20001220703</ele>
        <time>2013-01-26T08:56:43.000Z</time>
      </trkpt>
      <trkpt lat="43.61854" lon="5.648">
        <ele>309.39999389648</ele>
        <time>2013-01-26T08:56:56.000Z</time>
      </trkpt>
      <trkpt lat="43.61805" lon="5.64806">
        <ele>310.39999389648</ele>
        <time>2013-01-26T08:57:09.000Z</time>
      </trkpt>
      <trkpt lat="43.61756" lon="5.64814">
        <ele>310.79998779297</ele>
        <time>2013-01-26T08:57:22.000Z</time>
      </trkpt>
      <trkpt lat="43.61711" lon="5.64824">
        <ele>312.60000610352</ele>
        <time>2013-01-26T08:57:34.000Z</time>
      </trkpt>
      <trkpt lat="43.61663" lon="5.64842">
        <ele>315.39999389648</ele>
        <time>2013-01-26T08:57:47.000Z</time>
      </trkpt>
      <trkpt lat="43.61618" lon="5.64854">
        <ele>319</ele>
        <time>2013-01-26T08:57:59.000Z</time>
      </trkpt>
      <trkpt lat="43.61581" lon="5.64813">
        <ele>321.39999389648</ele>
        <time>2013-01-26T08:58:12.000Z</time>
      </trkpt>
      <trkpt lat="43.61545" lon="5.64795">
        <ele>322</ele>
        <time>2013-01-26T08:58:25.000Z</time>
      </trkpt>
      <trkpt lat="43.61509" lon="5.64841">
        <ele>323.60000610352</ele>
        <time>2013-01-26T08:58:37.000Z</time>
      </trkpt>
      <trkpt lat="43.61473" lon="5.64881">
        <ele>325</ele>
        <time>2013-01-26T08:58:48.000Z</time>
      </trkpt>
      <trkpt lat="43.61428" lon="5.64903">
        <ele>326.60000610352</ele>
        <time>2013-01-26T08:59:00.000Z</time>
      </trkpt>
      <trkpt lat="43.61381" lon="5.64923">
        <ele>330.60000610352</ele>
        <time>2013-01-26T08:59:14.000Z</time>
      </trkpt>
      <trkpt lat="43.61335" lon="5.64936">
        <ele>334.60000610352</ele>
        <time>2013-01-26T08:59:28.000Z</time>
      </trkpt>
      <trkpt lat="43.61288" lon="5.64929">
        <ele>336.39999389648</ele>
        <time>2013-01-26T08:59:43.000Z</time>
      </trkpt>
      <trkpt lat="43.61239" lon="5.64924">
        <ele>338.39999389648</ele>
        <time>2013-01-26T08:59:58.000Z</time>
      </trkpt>
      <trkpt lat="43.61192" lon="5.6492">
        <ele>341.79998779297</ele>
        <time>2013-01-26T09:00:12.000Z</time>
      </trkpt>
      <trkpt lat="43.61145" lon="5.64916">
        <ele>345.20001220703</ele>
        <time>2013-01-26T09:00:26.000Z</time>
      </trkpt>
      <trkpt lat="43.61098" lon="5.64905">
        <ele>348.20001220703</ele>
        <time>2013-01-26T09:00:41.000Z</time>
      </trkpt>
      <trkpt lat="43.61057" lon="5.64871">
        <ele>352</ele>
        <time>2013-01-26T09:00:56.000Z</time>
      </trkpt>
      <trkpt lat="43.61015" lon="5.64843">
        <ele>356.79998779297</ele>
        <time>2013-01-26T09:01:10.000Z</time>
      </trkpt>
      <trkpt lat="43.60977" lon="5.6488">
        <ele>358.60000610352</ele>
        <time>2013-01-26T09:01:24.000Z</time>
      </trkpt>
      <trkpt lat="43.60942" lon="5.64923">
        <ele>361.60000610352</ele>
        <time>2013-01-26T09:01:40.000Z</time>
      </trkpt>
      <trkpt lat="43.60906" lon="5.64966">
        <ele>365</ele>
        <time>2013-01-26T09:01:57.000Z</time>
      </trkpt>
      <trkpt lat="43.60871" lon="5.65005">
        <ele>366.60000610352</ele>
        <time>2013-01-26T09:02:13.000Z</time>
      </trkpt>
      <trkpt lat="43.60834" lon="5.6504">
        <ele>370.20001220703</ele>
        <time>2013-01-26T09:02:30.000Z</time>
      </trkpt>
      <trkpt lat="43.6079" lon="5.65055">
        <ele>374.20001220703</ele>
        <time>2013-01-26T09:02:46.000Z</time>
      </trkpt>
      <trkpt lat="43.60745" lon="5.65067">
        <ele>378</ele>
        <time>2013-01-26T09:03:01.000Z</time>
      </trkpt>
      <trkpt lat="43.60698" lon="5.65073">
        <ele>380.20001220703</ele>
        <time>2013-01-26T09:03:16.000Z</time>
      </trkpt>
      <trkpt lat="43.60648" lon="5.65085">
        <ele>380.79998779297</ele>
        <time>2013-01-26T09:03:31.000Z</time>
      </trkpt>
      <trkpt lat="43.60602" lon="5.65085">
        <ele>378</ele>
        <time>2013-01-26T09:03:40.000Z</time>
      </trkpt>
      <trkpt lat="43.60557" lon="5.65063">
        <ele>374.60000610352</ele>
        <time>2013-01-26T09:03:47.000Z</time>
      </trkpt>
      <trkpt lat="43.60514" lon="5.65036">
        <ele>371</ele>
        <time>2013-01-26T09:03:59.000Z</time>
      </trkpt>
      <trkpt lat="43.60479" lon="5.64982">
        <ele>369</ele>
        <time>2013-01-26T09:04:07.000Z</time>
      </trkpt>
      <trkpt lat="43.60446" lon="5.6493">
        <ele>367.60000610352</ele>
        <time>2013-01-26T09:04:15.000Z</time>
      </trkpt>
      <trkpt lat="43.60417" lon="5.64881">
        <ele>366.20001220703</ele>
        <time>2013-01-26T09:04:25.000Z</time>
      </trkpt>
      <trkpt lat="43.60399" lon="5.64823">
        <ele>366.39999389648</ele>
        <time>2013-01-26T09:04:41.000Z</time>
      </trkpt>
      <trkpt lat="43.60402" lon="5.64752">
        <ele>367.79998779297</ele>
        <time>2013-01-26T09:04:59.000Z</time>
      </trkpt>
      <trkpt lat="43.60392" lon="5.64688">
        <ele>369</ele>
        <time>2013-01-26T09:05:12.000Z</time>
      </trkpt>
      <trkpt lat="43.60364" lon="5.64638">
        <ele>369.20001220703</ele>
        <time>2013-01-26T09:05:26.000Z</time>
      </trkpt>
      <trkpt lat="43.6032" lon="5.64623">
        <ele>370.20001220703</ele>
        <time>2013-01-26T09:05:41.000Z</time>
      </trkpt>
      <trkpt lat="43.60273" lon="5.64618">
        <ele>376</ele>
        <time>2013-01-26T09:05:58.000Z</time>
      </trkpt>
      <trkpt lat="43.60232" lon="5.64654">
        <ele>378</ele>
        <time>2013-01-26T09:06:18.000Z</time>
      </trkpt>
      <trkpt lat="43.60192" lon="5.64686">
        <ele>380</ele>
        <time>2013-01-26T09:06:38.000Z</time>
      </trkpt>
      <trkpt lat="43.6015" lon="5.64719">
        <ele>380.20001220703</ele>
        <time>2013-01-26T09:06:56.000Z</time>
      </trkpt>
      <trkpt lat="43.60107" lon="5.64746">
        <ele>379.39999389648</ele>
        <time>2013-01-26T09:07:14.000Z</time>
      </trkpt>
      <trkpt lat="43.60062" lon="5.6473">
        <ele>382.60000610352</ele>
        <time>2013-01-26T09:07:32.000Z</time>
      </trkpt>
      <trkpt lat="43.60039" lon="5.64676">
        <ele>387.60000610352</ele>
        <time>2013-01-26T09:07:49.000Z</time>
      </trkpt>
      <trkpt lat="43.59995" lon="5.64671">
        <ele>390.79998779297</ele>
        <time>2013-01-26T09:08:05.000Z</time>
      </trkpt>
      <trkpt lat="43.59947" lon="5.64687">
        <ele>392.39999389648</ele>
        <time>2013-01-26T09:08:20.000Z</time>
      </trkpt>
      <trkpt lat="43.59902" lon="5.64674">
        <ele>394</ele>
        <time>2013-01-26T09:08:43.000Z</time>
      </trkpt>
      <trkpt lat="43.59876" lon="5.64629">
        <ele>392</ele>
        <time>2013-01-26T09:09:05.000Z</time>
      </trkpt>
      <trkpt lat="43.59879" lon="5.64568">
        <ele>390.60000610352</ele>
        <time>2013-01-26T09:09:24.000Z</time>
      </trkpt>
      <trkpt lat="43.59869" lon="5.64507">
        <ele>386.79998779297</ele>
        <time>2013-01-26T09:09:34.000Z</time>
      </trkpt>
      <trkpt lat="43.59822" lon="5.64512">
        <ele>383.60000610352</ele>
        <time>2013-01-26T09:09:45.000Z</time>
      </trkpt>
      <trkpt lat="43.59772" lon="5.64522">
        <ele>381</ele>
        <time>2013-01-26T09:09:56.000Z</time>
      </trkpt>
      <trkpt lat="43.59724" lon="5.64532">
        <ele>380.39999389648</ele>
        <time>2013-01-26T09:10:06.000Z</time>
      </trkpt>
      <trkpt lat="43.5968" lon="5.64525">
        <ele>381</ele>
        <time>2013-01-26T09:10:15.000Z</time>
      </trkpt>
      <trkpt lat="43.59638" lon="5.6449">
        <ele>381.79998779297</ele>
        <time>2013-01-26T09:10:25.000Z</time>
      </trkpt>
      <trkpt lat="43.59592" lon="5.64475">
        <ele>383.60000610352</ele>
        <time>2013-01-26T09:10:36.000Z</time>
      </trkpt>
      <trkpt lat="43.59546" lon="5.64501">
        <ele>382.79998779297</ele>
        <time>2013-01-26T09:10:47.000Z</time>
      </trkpt>
      <trkpt lat="43.59503" lon="5.64525">
        <ele>383.60000610352</ele>
        <time>2013-01-26T09:10:57.000Z</time>
      </trkpt>
      <trkpt lat="43.5946" lon="5.64545">
        <ele>385.39999389648</ele>
        <time>2013-01-26T09:11:07.000Z</time>
      </trkpt>
      <trkpt lat="43.59415" lon="5.64566">
        <ele>387.39999389648</ele>
        <time>2013-01-26T09:11:18.000Z</time>
      </trkpt>
      <trkpt lat="43.5937" lon="5.64583">
        <ele>389.20001220703</ele>
        <time>2013-01-26T09:11:29.000Z</time>
      </trkpt>
      <trkpt lat="43.59324" lon="5.64586">
        <ele>390.79998779297</ele>
        <time>2013-01-26T09:11:41.000Z</time>
      </trkpt>
      <trkpt lat="43.59294" lon="5.64538">
        <ele>392.79998779297</ele>
        <time>2013-01-26T09:11:52.000Z</time>
      </trkpt>
      <trkpt lat="43.59251" lon="5.64515">
        <ele>394.20001220703</ele>
        <time>2013-01-26T09:12:03.000Z</time>
      </trkpt>
      <trkpt lat="43.59205" lon="5.64517">
        <ele>393.79998779297</ele>
        <time>2013-01-26T09:12:13.000Z</time>
      </trkpt>
      <trkpt lat="43.59169" lon="5.64486">
        <ele>395.60000610352</ele>
        <time>2013-01-26T09:12:23.000Z</time>
      </trkpt>
      <trkpt lat="43.59175" lon="5.64429">
        <ele>398.39999389648</ele>
        <time>2013-01-26T09:12:33.000Z</time>
      </trkpt>
      <trkpt lat="43.59129" lon="5.64418">
        <ele>398</ele>
        <time>2013-01-26T09:12:43.000Z</time>
      </trkpt>
      <trkpt lat="43.5909" lon="5.64387">
        <ele>398.60000610352</ele>
        <time>2013-01-26T09:12:53.000Z</time>
      </trkpt>
      <trkpt lat="43.59077" lon="5.64325">
        <ele>401.39999389648</ele>
        <time>2013-01-26T09:13:04.000Z</time>
      </trkpt>
      <trkpt lat="43.59074" lon="5.64262">
        <ele>404.39999389648</ele>
        <time>2013-01-26T09:13:19.000Z</time>
      </trkpt>
      <trkpt lat="43.59116" lon="5.64232">
        <ele>409.39999389648</ele>
        <time>2013-01-26T09:13:44.000Z</time>
      </trkpt>
      <trkpt lat="43.59161" lon="5.64205">
        <ele>414.20001220703</ele>
        <time>2013-01-26T09:14:09.000Z</time>
      </trkpt>
      <trkpt lat="43.59204" lon="5.64177">
        <ele>416.20001220703</ele>
        <time>2013-01-26T09:14:28.000Z</time>
      </trkpt>
      <trkpt lat="43.59234" lon="5.64126">
        <ele>419.20001220703</ele>
        <time>2013-01-26T09:14:46.000Z</time>
      </trkpt>
      <trkpt lat="43.59232" lon="5.64078">
        <ele>422.39999389648</ele>
        <time>2013-01-26T09:15:04.000Z</time>
      </trkpt>
      <trkpt lat="43.59209" lon="5.64023">
        <ele>428.39999389648</ele>
        <time>2013-01-26T09:15:21.000Z</time>
      </trkpt>
      <trkpt lat="43.59171" lon="5.63985">
        <ele>434.60000610352</ele>
        <time>2013-01-26T09:15:41.000Z</time>
      </trkpt>
      <trkpt lat="43.59151" lon="5.63927">
        <ele>437.20001220703</ele>
        <time>2013-01-26T09:16:00.000Z</time>
      </trkpt>
      <trkpt lat="43.59157" lon="5.63859">
        <ele>439.60000610352</ele>
        <time>2013-01-26T09:16:17.000Z</time>
      </trkpt>
      <trkpt lat="43.59187" lon="5.63816">
        <ele>441.39999389648</ele>
        <time>2013-01-26T09:16:33.000Z</time>
      </trkpt>
      <trkpt lat="43.59206" lon="5.63752">
        <ele>443.79998779297</ele>
        <time>2013-01-26T09:16:49.000Z</time>
      </trkpt>
      <trkpt lat="43.59206" lon="5.63687">
        <ele>445.60000610352</ele>
        <time>2013-01-26T09:17:05.000Z</time>
      </trkpt>
      <trkpt lat="43.59181" lon="5.63634">
        <ele>448</ele>
        <time>2013-01-26T09:17:24.000Z</time>
      </trkpt>
      <trkpt lat="43.59156" lon="5.6358">
        <ele>449.79998779297</ele>
        <time>2013-01-26T09:17:41.000Z</time>
      </trkpt>
      <trkpt lat="43.59124" lon="5.63534">
        <ele>454.20001220703</ele>
        <time>2013-01-26T09:17:52.000Z</time>
      </trkpt>
      <trkpt lat="43.59096" lon="5.63484">
        <ele>463.39999389648</ele>
        <time>2013-01-26T09:18:16.000Z</time>
      </trkpt>
      <trkpt lat="43.59064" lon="5.63436">
        <ele>473.79998779297</ele>
        <time>2013-01-26T09:18:38.000Z</time>
      </trkpt>
      <trkpt lat="43.59017" lon="5.63435">
        <ele>476.79998779297</ele>
        <time>2013-01-26T09:19:03.000Z</time>
      </trkpt>
      <trkpt lat="43.58976" lon="5.63427">
        <ele>478.20001220703</ele>
        <time>2013-01-26T09:19:29.000Z</time>
      </trkpt>
      <trkpt lat="43.58954" lon="5.6337">
        <ele>487.20001220703</ele>
        <time>2013-01-26T09:20:00.000Z</time>
      </trkpt>
      <trkpt lat="43.58979" lon="5.63335">
        <ele>493.39999389648</ele>
        <time>2013-01-26T09:20:29.000Z</time>
      </trkpt>
      <trkpt lat="43.58959" lon="5.63308">
        <ele>496.60000610352</ele>
        <time>2013-01-26T09:20:58.000Z</time>
      </trkpt>
      <trkpt lat="43.5898" lon="5.63252">
        <ele>502.20001220703</ele>
        <time>2013-01-26T09:21:22.000Z</time>
      </trkpt>
      <trkpt lat="43.58947" lon="5.63208">
        <ele>507.39999389648</ele>
        <time>2013-01-26T09:21:49.000Z</time>
      </trkpt>
      <trkpt lat="43.58922" lon="5.63151">
        <ele>514.79998779297</ele>
        <time>2013-01-26T09:22:18.000Z</time>
      </trkpt>
      <trkpt lat="43.58894" lon="5.63102">
        <ele>518.40002441406</ele>
        <time>2013-01-26T09:22:44.000Z</time>
      </trkpt>
      <trkpt lat="43.58871" lon="5.63044">
        <ele>523</ele>
        <time>2013-01-26T09:23:09.000Z</time>
      </trkpt>
      <trkpt lat="43.58849" lon="5.62988">
        <ele>529.40002441406</ele>
        <time>2013-01-26T09:23:33.000Z</time>
      </trkpt>
      <trkpt lat="43.5882" lon="5.6294">
        <ele>530.79998779297</ele>
        <time>2013-01-26T09:23:57.000Z</time>
      </trkpt>
      <trkpt lat="43.58788" lon="5.62892">
        <ele>532</ele>
        <time>2013-01-26T09:24:21.000Z</time>
      </trkpt>
      <trkpt lat="43.5876" lon="5.62843">
        <ele>537.40002441406</ele>
        <time>2013-01-26T09:24:41.000Z</time>
      </trkpt>
      <trkpt lat="43.58741" lon="5.62785">
        <ele>539.79998779297</ele>
        <time>2013-01-26T09:25:01.000Z</time>
      </trkpt>
      <trkpt lat="43.58726" lon="5.62724">
        <ele>542.79998779297</ele>
        <time>2013-01-26T09:25:23.000Z</time>
      </trkpt>
      <trkpt lat="43.58716" lon="5.62661">
        <ele>548.79998779297</ele>
        <time>2013-01-26T09:25:46.000Z</time>
      </trkpt>
      <trkpt lat="43.58709" lon="5.62601">
        <ele>554.20001220703</ele>
        <time>2013-01-26T09:26:13.000Z</time>
      </trkpt>
      <trkpt lat="43.58708" lon="5.62536">
        <ele>561.59997558594</ele>
        <time>2013-01-26T09:26:45.000Z</time>
      </trkpt>
      <trkpt lat="43.58716" lon="5.62474">
        <ele>569.40002441406</ele>
        <time>2013-01-26T09:27:16.000Z</time>
      </trkpt>
      <trkpt lat="43.5873" lon="5.62411">
        <ele>577.79998779297</ele>
        <time>2013-01-26T09:27:49.000Z</time>
      </trkpt>
      <trkpt lat="43.58746" lon="5.62349">
        <ele>587.59997558594</ele>
        <time>2013-01-26T09:28:23.000Z</time>
      </trkpt>
      <trkpt lat="43.58757" lon="5.62284">
        <ele>596</ele>
        <time>2013-01-26T09:28:56.000Z</time>
      </trkpt>
      <trkpt lat="43.58766" lon="5.6222">
        <ele>603</ele>
        <time>2013-01-26T09:29:28.000Z</time>
      </trkpt>
      <trkpt lat="43.58779" lon="5.62158">
        <ele>608.79998779297</ele>
        <time>2013-01-26T09:30:00.000Z</time>
      </trkpt>
      <trkpt lat="43.58789" lon="5.62093">
        <ele>619.79998779297</ele>
        <time>2013-01-26T09:30:31.000Z</time>
      </trkpt>
      <trkpt lat="43.58765" lon="5.62102">
        <ele>616.59997558594</ele>
        <time>2013-01-26T09:30:58.000Z</time>
      </trkpt>
      <trkpt lat="43.58778" lon="5.62043">
        <ele>620.40002441406</ele>
        <time>2013-01-26T09:31:25.000Z</time>
      </trkpt>
      <trkpt lat="43.58822" lon="5.62044">
        <ele>631.20001220703</ele>
        <time>2013-01-26T09:31:53.000Z</time>
      </trkpt>
      <trkpt lat="43.58868" lon="5.62049">
        <ele>643.79998779297</ele>
        <time>2013-01-26T09:32:25.000Z</time>
      </trkpt>
      <trkpt lat="43.58909" lon="5.62081">
        <ele>648.40002441406</ele>
        <time>2013-01-26T09:32:59.000Z</time>
      </trkpt>
      <trkpt lat="43.58946" lon="5.6212">
        <ele>647.40002441406</ele>
        <time>2013-01-26T09:33:36.000Z</time>
      </trkpt>
      <trkpt lat="43.58983" lon="5.62117">
        <ele>655.59997558594</ele>
        <time>2013-01-26T09:34:13.000Z</time>
      </trkpt>
      <trkpt lat="43.58998" lon="5.62055">
        <ele>671</ele>
        <time>2013-01-26T09:34:50.000Z</time>
      </trkpt>
      <trkpt lat="43.59023" lon="5.62001">
        <ele>679</ele>
        <time>2013-01-26T09:35:26.000Z</time>
      </trkpt>
      <trkpt lat="43.59056" lon="5.61959">
        <ele>682.20001220703</ele>
        <time>2013-01-26T09:36:00.000Z</time>
      </trkpt>
      <trkpt lat="43.59025" lon="5.61939">
        <ele>689.59997558594</ele>
        <time>2013-01-26T09:36:34.000Z</time>
      </trkpt>
      <trkpt lat="43.5898" lon="5.61924">
        <ele>691.79998779297</ele>
        <time>2013-01-26T09:37:09.000Z</time>
      </trkpt>
      <trkpt lat="43.58987" lon="5.61882">
        <ele>695.20001220703</ele>
        <time>2013-01-26T09:37:41.000Z</time>
      </trkpt>
      <trkpt lat="43.5901" lon="5.61825">
        <ele>699.40002441406</ele>
        <time>2013-01-26T09:37:56.000Z</time>
      </trkpt>
      <trkpt lat="43.59047" lon="5.61802">
        <ele>699.20001220703</ele>
        <time>2013-01-26T09:38:23.000Z</time>
      </trkpt>
      <trkpt lat="43.59092" lon="5.61781">
        <ele>706.40002441406</ele>
        <time>2013-01-26T09:38:50.000Z</time>
      </trkpt>
      <trkpt lat="43.59139" lon="5.61765">
        <ele>715.59997558594</ele>
        <time>2013-01-26T09:39:12.000Z</time>
      </trkpt>
      <trkpt lat="43.59186" lon="5.61759">
        <ele>721.20001220703</ele>
        <time>2013-01-26T09:39:34.000Z</time>
      </trkpt>
      <trkpt lat="43.59229" lon="5.61729">
        <ele>727</ele>
        <time>2013-01-26T09:40:00.000Z</time>
      </trkpt>
      <trkpt lat="43.59272" lon="5.61701">
        <ele>732.20001220703</ele>
        <time>2013-01-26T09:40:25.000Z</time>
      </trkpt>
      <trkpt lat="43.59319" lon="5.61688">
        <ele>735</ele>
        <time>2013-01-26T09:40:48.000Z</time>
      </trkpt>
      <trkpt lat="43.59365" lon="5.61697">
        <ele>734.20001220703</ele>
        <time>2013-01-26T09:41:09.000Z</time>
      </trkpt>
      <trkpt lat="43.59413" lon="5.61691">
        <ele>736.59997558594</ele>
        <time>2013-01-26T09:41:25.000Z</time>
      </trkpt>
      <trkpt lat="43.59426" lon="5.61634">
        <ele>742.20001220703</ele>
        <time>2013-01-26T09:41:40.000Z</time>
      </trkpt>
      <trkpt lat="43.59435" lon="5.6157">
        <ele>748</ele>
        <time>2013-01-26T09:41:54.000Z</time>
      </trkpt>
      <trkpt lat="43.59465" lon="5.61521">
        <ele>748.59997558594</ele>
        <time>2013-01-26T09:42:06.000Z</time>
      </trkpt>
      <trkpt lat="43.59499" lon="5.61482">
        <ele>748.79998779297</ele>
        <time>2013-01-26T09:42:23.000Z</time>
      </trkpt>
      <trkpt lat="43.59534" lon="5.61438">
        <ele>752.59997558594</ele>
        <time>2013-01-26T09:42:43.000Z</time>
      </trkpt>
      <trkpt lat="43.59575" lon="5.61403">
        <ele>751.59997558594</ele>
        <time>2013-01-26T09:43:05.000Z</time>
      </trkpt>
      <trkpt lat="43.59611" lon="5.61364">
        <ele>752.59997558594</ele>
        <time>2013-01-26T09:43:28.000Z</time>
      </trkpt>
      <trkpt lat="43.59652" lon="5.6133">
        <ele>755.40002441406</ele>
        <time>2013-01-26T09:43:52.000Z</time>
      </trkpt>
      <trkpt lat="43.59616" lon="5.61338">
        <ele>756.40002441406</ele>
        <time>2013-01-26T09:44:11.000Z</time>
      </trkpt>
      <trkpt lat="43.59571" lon="5.6135">
        <ele>755.40002441406</ele>
        <time>2013-01-26T09:44:27.000Z</time>
      </trkpt>
      <trkpt lat="43.5953" lon="5.61377">
        <ele>755.40002441406</ele>
        <time>2013-01-26T09:44:43.000Z</time>
      </trkpt>
      <trkpt lat="43.59487" lon="5.61393">
        <ele>759</ele>
        <time>2013-01-26T09:45:03.000Z</time>
      </trkpt>
      <trkpt lat="43.59477" lon="5.61397">
        <ele>759.20001220703</ele>
        <time>2013-01-26T09:52:43.000Z</time>
      </trkpt>
      <trkpt lat="43.59523" lon="5.61382">
        <ele>756.40002441406</ele>
        <time>2013-01-26T09:52:55.000Z</time>
      </trkpt>
      <trkpt lat="43.59568" lon="5.61351">
        <ele>755.20001220703</ele>
        <time>2013-01-26T09:53:03.000Z</time>
      </trkpt>
      <trkpt lat="43.59618" lon="5.61335">
        <ele>756.79998779297</ele>
        <time>2013-01-26T09:53:11.000Z</time>
      </trkpt>
      <trkpt lat="43.59666" lon="5.61318">
        <ele>752.59997558594</ele>
        <time>2013-01-26T09:53:19.000Z</time>
      </trkpt>
      <trkpt lat="43.59706" lon="5.6129">
        <ele>746.59997558594</ele>
        <time>2013-01-26T09:53:35.000Z</time>
      </trkpt>
      <trkpt lat="43.59742" lon="5.61257">
        <ele>748.40002441406</ele>
        <time>2013-01-26T09:54:26.000Z</time>
      </trkpt>
      <trkpt lat="43.59779" lon="5.61239">
        <ele>742</ele>
        <time>2013-01-26T09:56:01.000Z</time>
      </trkpt>
      <trkpt lat="43.59806" lon="5.61196">
        <ele>731</ele>
        <time>2013-01-26T09:57:20.000Z</time>
      </trkpt>
      <trkpt lat="43.59786" lon="5.6118">
        <ele>728</ele>
        <time>2013-01-26T09:59:27.000Z</time>
      </trkpt>
      <trkpt lat="43.59769" lon="5.61152">
        <ele>720.20001220703</ele>
        <time>2013-01-26T10:02:07.000Z</time>
      </trkpt>
      <trkpt lat="43.59758" lon="5.61084">
        <ele>700.79998779297</ele>
        <time>2013-01-26T10:03:00.000Z</time>
      </trkpt>
      <trkpt lat="43.59785" lon="5.61039">
        <ele>691.79998779297</ele>
        <time>2013-01-26T10:03:40.000Z</time>
      </trkpt>
      <trkpt lat="43.59825" lon="5.61005">
        <ele>688.20001220703</ele>
        <time>2013-01-26T10:03:59.000Z</time>
      </trkpt>
      <trkpt lat="43.59872" lon="5.60986">
        <ele>675</ele>
        <time>2013-01-26T10:04:21.000Z</time>
      </trkpt>
      <trkpt lat="43.59906" lon="5.60931">
        <ele>661.20001220703</ele>
        <time>2013-01-26T10:04:55.000Z</time>
      </trkpt>
      <trkpt lat="43.59935" lon="5.6087">
        <ele>643.20001220703</ele>
        <time>2013-01-26T10:05:17.000Z</time>
      </trkpt>
      <trkpt lat="43.59948" lon="5.60807">
        <ele>632.20001220703</ele>
        <time>2013-01-26T10:05:53.000Z</time>
      </trkpt>
      <trkpt lat="43.59969" lon="5.60749">
        <ele>628.40002441406</ele>
        <time>2013-01-26T10:06:12.000Z</time>
      </trkpt>
      <trkpt lat="43.59979" lon="5.60693">
        <ele>626</ele>
        <time>2013-01-26T10:06:36.000Z</time>
      </trkpt>
      <trkpt lat="43.59966" lon="5.60631">
        <ele>614.40002441406</ele>
        <time>2013-01-26T10:07:00.000Z</time>
      </trkpt>
      <trkpt lat="43.59944" lon="5.60579">
        <ele>599.40002441406</ele>
        <time>2013-01-26T10:07:26.000Z</time>
      </trkpt>
      <trkpt lat="43.59933" lon="5.60526">
        <ele>587.79998779297</ele>
        <time>2013-01-26T10:08:45.000Z</time>
      </trkpt>
      <trkpt lat="43.59912" lon="5.60467">
        <ele>578</ele>
        <time>2013-01-26T10:09:05.000Z</time>
      </trkpt>
      <trkpt lat="43.59889" lon="5.60415">
        <ele>566.59997558594</ele>
        <time>2013-01-26T10:09:31.000Z</time>
      </trkpt>
      <trkpt lat="43.59865" lon="5.60424">
        <ele>561.40002441406</ele>
        <time>2013-01-26T10:10:56.000Z</time>
      </trkpt>
      <trkpt lat="43.5986" lon="5.60493">
        <ele>563.59997558594</ele>
        <time>2013-01-26T10:11:10.000Z</time>
      </trkpt>
      <trkpt lat="43.59844" lon="5.60505">
        <ele>559.40002441406</ele>
        <time>2013-01-26T10:11:26.000Z</time>
      </trkpt>
      <trkpt lat="43.59805" lon="5.60526">
        <ele>555</ele>
        <time>2013-01-26T10:11:42.000Z</time>
      </trkpt>
      <trkpt lat="43.59768" lon="5.60494">
        <ele>540.79998779297</ele>
        <time>2013-01-26T10:11:54.000Z</time>
      </trkpt>
      <trkpt lat="43.59731" lon="5.6046">
        <ele>528.79998779297</ele>
        <time>2013-01-26T10:12:08.000Z</time>
      </trkpt>
      <trkpt lat="43.59714" lon="5.60498">
        <ele>533.59997558594</ele>
        <time>2013-01-26T10:12:24.000Z</time>
      </trkpt>
      <trkpt lat="43.59684" lon="5.60475">
        <ele>525.79998779297</ele>
        <time>2013-01-26T10:12:41.000Z</time>
      </trkpt>
      <trkpt lat="43.59647" lon="5.60432">
        <ele>512.79998779297</ele>
        <time>2013-01-26T10:12:56.000Z</time>
      </trkpt>
      <trkpt lat="43.5961" lon="5.60409">
        <ele>506.39999389648</ele>
        <time>2013-01-26T10:13:10.000Z</time>
      </trkpt>
      <trkpt lat="43.59595" lon="5.60398">
        <ele>506.79998779297</ele>
        <time>2013-01-26T10:13:26.000Z</time>
      </trkpt>
      <trkpt lat="43.59632" lon="5.60355">
        <ele>507.39999389648</ele>
        <time>2013-01-26T10:13:37.000Z</time>
      </trkpt>
      <trkpt lat="43.59667" lon="5.60311">
        <ele>498.79998779297</ele>
        <time>2013-01-26T10:13:57.000Z</time>
      </trkpt>
      <trkpt lat="43.59705" lon="5.60272">
        <ele>502.20001220703</ele>
        <time>2013-01-26T10:14:49.000Z</time>
      </trkpt>
      <trkpt lat="43.59696" lon="5.60208">
        <ele>496.39999389648</ele>
        <time>2013-01-26T10:14:59.000Z</time>
      </trkpt>
      <trkpt lat="43.59701" lon="5.60144">
        <ele>489.60000610352</ele>
        <time>2013-01-26T10:15:08.000Z</time>
      </trkpt>
      <trkpt lat="43.59711" lon="5.60076">
        <ele>481.60000610352</ele>
        <time>2013-01-26T10:15:16.000Z</time>
      </trkpt>
      <trkpt lat="43.59718" lon="5.60015">
        <ele>476.79998779297</ele>
        <time>2013-01-26T10:15:24.000Z</time>
      </trkpt>
      <trkpt lat="43.59718" lon="5.59959">
        <ele>477</ele>
        <time>2013-01-26T10:16:46.000Z</time>
      </trkpt>
      <trkpt lat="43.59749" lon="5.59916">
        <ele>470.39999389648</ele>
        <time>2013-01-26T10:16:58.000Z</time>
      </trkpt>
      <trkpt lat="43.59795" lon="5.59902">
        <ele>469.60000610352</ele>
        <time>2013-01-26T10:17:07.000Z</time>
      </trkpt>
      <trkpt lat="43.59835" lon="5.59866">
        <ele>469</ele>
        <time>2013-01-26T10:17:16.000Z</time>
      </trkpt>
      <trkpt lat="43.5988" lon="5.59874">
        <ele>464.60000610352</ele>
        <time>2013-01-26T10:17:25.000Z</time>
      </trkpt>
      <trkpt lat="43.59928" lon="5.59893">
        <ele>460.20001220703</ele>
        <time>2013-01-26T10:17:34.000Z</time>
      </trkpt>
      <trkpt lat="43.59958" lon="5.59843">
        <ele>458.20001220703</ele>
        <time>2013-01-26T10:17:46.000Z</time>
      </trkpt>
      <trkpt lat="43.59998" lon="5.59808">
        <ele>458.79998779297</ele>
        <time>2013-01-26T10:17:57.000Z</time>
      </trkpt>
      <trkpt lat="43.60042" lon="5.59837">
        <ele>446.20001220703</ele>
        <time>2013-01-26T10:18:09.000Z</time>
      </trkpt>
      <trkpt lat="43.60079" lon="5.59878">
        <ele>442.39999389648</ele>
        <time>2013-01-26T10:18:18.000Z</time>
      </trkpt>
      <trkpt lat="43.60115" lon="5.59838">
        <ele>435.39999389648</ele>
        <time>2013-01-26T10:18:27.000Z</time>
      </trkpt>
      <trkpt lat="43.60132" lon="5.59784">
        <ele>437.79998779297</ele>
        <time>2013-01-26T10:18:36.000Z</time>
      </trkpt>
      <trkpt lat="43.60172" lon="5.59767">
        <ele>430.60000610352</ele>
        <time>2013-01-26T10:18:46.000Z</time>
      </trkpt>
      <trkpt lat="43.60213" lon="5.59801">
        <ele>428.79998779297</ele>
        <time>2013-01-26T10:18:54.000Z</time>
      </trkpt>
      <trkpt lat="43.60244" lon="5.59846">
        <ele>421</ele>
        <time>2013-01-26T10:19:03.000Z</time>
      </trkpt>
      <trkpt lat="43.60265" lon="5.59892">
        <ele>420.60000610352</ele>
        <time>2013-01-26T10:19:12.000Z</time>
      </trkpt>
      <trkpt lat="43.60304" lon="5.59863">
        <ele>418.79998779297</ele>
        <time>2013-01-26T10:19:20.000Z</time>
      </trkpt>
      <trkpt lat="43.60349" lon="5.59852">
        <ele>415.60000610352</ele>
        <time>2013-01-26T10:19:28.000Z</time>
      </trkpt>
      <trkpt lat="43.60394" lon="5.59863">
        <ele>408.20001220703</ele>
        <time>2013-01-26T10:19:36.000Z</time>
      </trkpt>
      <trkpt lat="43.60439" lon="5.59873">
        <ele>406.79998779297</ele>
        <time>2013-01-26T10:19:44.000Z</time>
      </trkpt>
      <trkpt lat="43.60452" lon="5.59941">
        <ele>405.20001220703</ele>
        <time>2013-01-26T10:19:54.000Z</time>
      </trkpt>
      <trkpt lat="43.60497" lon="5.59973">
        <ele>400.79998779297</ele>
        <time>2013-01-26T10:20:03.000Z</time>
      </trkpt>
      <trkpt lat="43.60538" lon="5.60013">
        <ele>400.60000610352</ele>
        <time>2013-01-26T10:20:11.000Z</time>
      </trkpt>
      <trkpt lat="43.6056" lon="5.60066">
        <ele>397.79998779297</ele>
        <time>2013-01-26T10:20:19.000Z</time>
      </trkpt>
      <trkpt lat="43.60601" lon="5.60112">
        <ele>390.60000610352</ele>
        <time>2013-01-26T10:20:27.000Z</time>
      </trkpt>
      <trkpt lat="43.60649" lon="5.60107">
        <ele>385.60000610352</ele>
        <time>2013-01-26T10:20:36.000Z</time>
      </trkpt>
      <trkpt lat="43.60697" lon="5.60096">
        <ele>380.20001220703</ele>
        <time>2013-01-26T10:20:44.000Z</time>
      </trkpt>
      <trkpt lat="43.60742" lon="5.60111">
        <ele>375.79998779297</ele>
        <time>2013-01-26T10:20:54.000Z</time>
      </trkpt>
      <trkpt lat="43.60783" lon="5.60053">
        <ele>376.20001220703</ele>
        <time>2013-01-26T10:21:03.000Z</time>
      </trkpt>
      <trkpt lat="43.60822" lon="5.60034">
        <ele>374</ele>
        <time>2013-01-26T10:21:11.000Z</time>
      </trkpt>
      <trkpt lat="43.6086" lon="5.60046">
        <ele>368.60000610352</ele>
        <time>2013-01-26T10:21:45.000Z</time>
      </trkpt>
      <trkpt lat="43.60908" lon="5.60036">
        <ele>363.20001220703</ele>
        <time>2013-01-26T10:21:59.000Z</time>
      </trkpt>
      <trkpt lat="43.60945" lon="5.59982">
        <ele>363</ele>
        <time>2013-01-26T10:22:08.000Z</time>
      </trkpt>
      <trkpt lat="43.60982" lon="5.59937">
        <ele>358.20001220703</ele>
        <time>2013-01-26T10:22:17.000Z</time>
      </trkpt>
      <trkpt lat="43.61012" lon="5.5989">
        <ele>353</ele>
        <time>2013-01-26T10:22:27.000Z</time>
      </trkpt>
      <trkpt lat="43.61008" lon="5.59827">
        <ele>350</ele>
        <time>2013-01-26T10:22:36.000Z</time>
      </trkpt>
      <trkpt lat="43.61045" lon="5.59793">
        <ele>351.60000610352</ele>
        <time>2013-01-26T10:22:44.000Z</time>
      </trkpt>
      <trkpt lat="43.61075" lon="5.59735">
        <ele>348.39999389648</ele>
        <time>2013-01-26T10:22:52.000Z</time>
      </trkpt>
      <trkpt lat="43.61099" lon="5.59678">
        <ele>347.20001220703</ele>
        <time>2013-01-26T10:22:59.000Z</time>
      </trkpt>
      <trkpt lat="43.61139" lon="5.59654">
        <ele>343.39999389648</ele>
        <time>2013-01-26T10:23:06.000Z</time>
      </trkpt>
      <trkpt lat="43.61187" lon="5.59661">
        <ele>337.39999389648</ele>
        <time>2013-01-26T10:23:13.000Z</time>
      </trkpt>
      <trkpt lat="43.61222" lon="5.59626">
        <ele>335.60000610352</ele>
        <time>2013-01-26T10:23:20.000Z</time>
      </trkpt>
      <trkpt lat="43.61256" lon="5.59584">
        <ele>333.39999389648</ele>
        <time>2013-01-26T10:23:27.000Z</time>
      </trkpt>
      <trkpt lat="43.61298" lon="5.59574">
        <ele>330.39999389648</ele>
        <time>2013-01-26T10:23:35.000Z</time>
      </trkpt>
      <trkpt lat="43.6135" lon="5.5958">
        <ele>326.39999389648</ele>
        <time>2013-01-26T10:23:43.000Z</time>
      </trkpt>
      <trkpt lat="43.61398" lon="5.59587">
        <ele>324.79998779297</ele>
        <time>2013-01-26T10:23:49.000Z</time>
      </trkpt>
      <trkpt lat="43.61447" lon="5.59598">
        <ele>324.60000610352</ele>
        <time>2013-01-26T10:23:55.000Z</time>
      </trkpt>
      <trkpt lat="43.61494" lon="5.59618">
        <ele>322.79998779297</ele>
        <time>2013-01-26T10:24:01.000Z</time>
      </trkpt>
      <trkpt lat="43.61541" lon="5.59628">
        <ele>320</ele>
        <time>2013-01-26T10:24:07.000Z</time>
      </trkpt>
      <trkpt lat="43.61588" lon="5.59645">
        <ele>316</ele>
        <time>2013-01-26T10:24:14.000Z</time>
      </trkpt>
      <trkpt lat="43.61632" lon="5.59637">
        <ele>315</ele>
        <time>2013-01-26T10:24:21.000Z</time>
      </trkpt>
      <trkpt lat="43.61673" lon="5.59604">
        <ele>315</ele>
        <time>2013-01-26T10:24:28.000Z</time>
      </trkpt>
      <trkpt lat="43.61721" lon="5.59615">
        <ele>314.20001220703</ele>
        <time>2013-01-26T10:24:35.000Z</time>
      </trkpt>
      <trkpt lat="43.61769" lon="5.59627">
        <ele>312.39999389648</ele>
        <time>2013-01-26T10:24:42.000Z</time>
      </trkpt>
      <trkpt lat="43.61811" lon="5.59656">
        <ele>306.60000610352</ele>
        <time>2013-01-26T10:24:49.000Z</time>
      </trkpt>
      <trkpt lat="43.61853" lon="5.59645">
        <ele>306</ele>
        <time>2013-01-26T10:24:56.000Z</time>
      </trkpt>
      <trkpt lat="43.61886" lon="5.596">
        <ele>307.20001220703</ele>
        <time>2013-01-26T10:25:04.000Z</time>
      </trkpt>
      <trkpt lat="43.61911" lon="5.59543">
        <ele>309.60000610352</ele>
        <time>2013-01-26T10:25:16.000Z</time>
      </trkpt>
      <trkpt lat="43.6192" lon="5.59481">
        <ele>317</ele>
        <time>2013-01-26T10:25:28.000Z</time>
      </trkpt>
      <trkpt lat="43.6196" lon="5.59458">
        <ele>322</ele>
        <time>2013-01-26T10:25:49.000Z</time>
      </trkpt>
      <trkpt lat="43.6196" lon="5.59397">
        <ele>327.60000610352</ele>
        <time>2013-01-26T10:26:16.000Z</time>
      </trkpt>
      <trkpt lat="43.61957" lon="5.59332">
        <ele>331.39999389648</ele>
        <time>2013-01-26T10:26:43.000Z</time>
      </trkpt>
      <trkpt lat="43.61966" lon="5.59267">
        <ele>335.20001220703</ele>
        <time>2013-01-26T10:27:04.000Z</time>
      </trkpt>
      <trkpt lat="43.61996" lon="5.59229">
        <ele>336.79998779297</ele>
        <time>2013-01-26T10:27:37.000Z</time>
      </trkpt>
      <trkpt lat="43.62026" lon="5.59282">
        <ele>336</ele>
        <time>2013-01-26T10:28:06.000Z</time>
      </trkpt>
      <trkpt lat="43.62039" lon="5.59345">
        <ele>335.20001220703</ele>
        <time>2013-01-26T10:28:24.000Z</time>
      </trkpt>
      <trkpt lat="43.62073" lon="5.59384">
        <ele>334.39999389648</ele>
        <time>2013-01-26T10:28:52.000Z</time>
      </trkpt>
      <trkpt lat="43.62119" lon="5.5938">
        <ele>333.60000610352</ele>
        <time>2013-01-26T10:29:03.000Z</time>
      </trkpt>
      <trkpt lat="43.62165" lon="5.59363">
        <ele>333.20001220703</ele>
        <time>2013-01-26T10:29:20.000Z</time>
      </trkpt>
      <trkpt lat="43.62211" lon="5.59373">
        <ele>330.60000610352</ele>
        <time>2013-01-26T10:29:32.000Z</time>
      </trkpt>
      <trkpt lat="43.62252" lon="5.59396">
        <ele>328.60000610352</ele>
        <time>2013-01-26T10:29:42.000Z</time>
      </trkpt>
      <trkpt lat="43.62278" lon="5.59449">
        <ele>323.39999389648</ele>
        <time>2013-01-26T10:29:53.000Z</time>
      </trkpt>
      <trkpt lat="43.6227" lon="5.5951">
        <ele>317.79998779297</ele>
        <time>2013-01-26T10:30:05.000Z</time>
      </trkpt>
      <trkpt lat="43.62288" lon="5.59554">
        <ele>311.60000610352</ele>
        <time>2013-01-26T10:30:18.000Z</time>
      </trkpt>
      <trkpt lat="43.62332" lon="5.59545">
        <ele>314</ele>
        <time>2013-01-26T10:30:31.000Z</time>
      </trkpt>
      <trkpt lat="43.62367" lon="5.595">
        <ele>312.60000610352</ele>
        <time>2013-01-26T10:30:43.000Z</time>
      </trkpt>
      <trkpt lat="43.62384" lon="5.59443">
        <ele>315.60000610352</ele>
        <time>2013-01-26T10:30:55.000Z</time>
      </trkpt>
      <trkpt lat="43.62425" lon="5.59408">
        <ele>314</ele>
        <time>2013-01-26T10:31:08.000Z</time>
      </trkpt>
      <trkpt lat="43.6247" lon="5.59387">
        <ele>309.79998779297</ele>
        <time>2013-01-26T10:31:20.000Z</time>
      </trkpt>
      <trkpt lat="43.62515" lon="5.5937">
        <ele>306.79998779297</ele>
        <time>2013-01-26T10:31:31.000Z</time>
      </trkpt>
      <trkpt lat="43.62554" lon="5.59333">
        <ele>306.20001220703</ele>
        <time>2013-01-26T10:31:45.000Z</time>
      </trkpt>
      <trkpt lat="43.62588" lon="5.59296">
        <ele>303.79998779297</ele>
        <time>2013-01-26T10:32:00.000Z</time>
      </trkpt>
      <trkpt lat="43.62632" lon="5.5932">
        <ele>298.20001220703</ele>
        <time>2013-01-26T10:32:13.000Z</time>
      </trkpt>
      <trkpt lat="43.62632" lon="5.59374">
        <ele>292.60000610352</ele>
        <time>2013-01-26T10:32:26.000Z</time>
      </trkpt>
      <trkpt lat="43.62643" lon="5.59428">
        <ele>285</ele>
        <time>2013-01-26T10:32:42.000Z</time>
      </trkpt>
      <trkpt lat="43.62601" lon="5.59437">
        <ele>287.60000610352</ele>
        <time>2013-01-26T10:35:25.000Z</time>
      </trkpt>
      <trkpt lat="43.62561" lon="5.59469">
        <ele>285.39999389648</ele>
        <time>2013-01-26T10:35:42.000Z</time>
      </trkpt>
      <trkpt lat="43.6255" lon="5.59495">
        <ele>281.39999389648</ele>
        <time>2013-01-26T10:36:06.000Z</time>
      </trkpt>
      <trkpt lat="43.62595" lon="5.59487">
        <ele>279.79998779297</ele>
        <time>2013-01-26T10:36:19.000Z</time>
      </trkpt>
      <trkpt lat="43.62641" lon="5.59496">
        <ele>277</ele>
        <time>2013-01-26T10:36:32.000Z</time>
      </trkpt>
      <trkpt lat="43.62684" lon="5.59502">
        <ele>276.79998779297</ele>
        <time>2013-01-26T10:36:46.000Z</time>
      </trkpt>
      <trkpt lat="43.62704" lon="5.59445">
        <ele>278.39999389648</ele>
        <time>2013-01-26T10:36:59.000Z</time>
      </trkpt>
      <trkpt lat="43.62727" lon="5.59398">
        <ele>278.60000610352</ele>
        <time>2013-01-26T10:37:12.000Z</time>
      </trkpt>
      <trkpt lat="43.62774" lon="5.59413">
        <ele>272.39999389648</ele>
        <time>2013-01-26T10:37:23.000Z</time>
      </trkpt>
      <trkpt lat="43.6282" lon="5.59433">
        <ele>271.20001220703</ele>
        <time>2013-01-26T10:37:35.000Z</time>
      </trkpt>
      <trkpt lat="43.62865" lon="5.59419">
        <ele>269.60000610352</ele>
        <time>2013-01-26T10:37:46.000Z</time>
      </trkpt>
      <trkpt lat="43.62901" lon="5.5939">
        <ele>268.60000610352</ele>
        <time>2013-01-26T10:38:02.000Z</time>
      </trkpt>
      <trkpt lat="43.62908" lon="5.59355">
        <ele>267.60000610352</ele>
        <time>2013-01-26T10:38:19.000Z</time>
      </trkpt>
      <trkpt lat="43.6293" lon="5.59302">
        <ele>268.20001220703</ele>
        <time>2013-01-26T10:38:32.000Z</time>
      </trkpt>
      <trkpt lat="43.62977" lon="5.5928">
        <ele>267</ele>
        <time>2013-01-26T10:38:45.000Z</time>
      </trkpt>
      <trkpt lat="43.63018" lon="5.5924">
        <ele>265.39999389648</ele>
        <time>2013-01-26T10:39:00.000Z</time>
      </trkpt>
      <trkpt lat="43.63056" lon="5.59193">
        <ele>267.20001220703</ele>
        <time>2013-01-26T10:39:17.000Z</time>
      </trkpt>
      <trkpt lat="43.6309" lon="5.59144">
        <ele>266.79998779297</ele>
        <time>2013-01-26T10:39:38.000Z</time>
      </trkpt>
      <trkpt lat="43.63102" lon="5.59084">
        <ele>269.79998779297</ele>
        <time>2013-01-26T10:40:02.000Z</time>
      </trkpt>
      <trkpt lat="43.63133" lon="5.59034">
        <ele>269.60000610352</ele>
        <time>2013-01-26T10:40:17.000Z</time>
      </trkpt>
      <trkpt lat="43.63166" lon="5.58985">
        <ele>270</ele>
        <time>2013-01-26T10:40:30.000Z</time>
      </trkpt>
      <trkpt lat="43.6321" lon="5.58965">
        <ele>266.79998779297</ele>
        <time>2013-01-26T10:40:48.000Z</time>
      </trkpt>
      <trkpt lat="43.63242" lon="5.58918">
        <ele>265.39999389648</ele>
        <time>2013-01-26T10:41:06.000Z</time>
      </trkpt>
      <trkpt lat="43.63278" lon="5.58871">
        <ele>263</ele>
        <time>2013-01-26T10:41:43.000Z</time>
      </trkpt>
      <trkpt lat="43.63312" lon="5.58818">
        <ele>260</ele>
        <time>2013-01-26T10:41:56.000Z</time>
      </trkpt>
      <trkpt lat="43.63345" lon="5.58773">
        <ele>255.80000305176</ele>
        <time>2013-01-26T10:42:06.000Z</time>
      </trkpt>
      <trkpt lat="43.63366" lon="5.58749">
        <ele>254.19999694824</ele>
        <time>2013-01-26T10:42:22.000Z</time>
      </trkpt>
      <trkpt lat="43.63317" lon="5.58765">
        <ele>256.60000610352</ele>
        <time>2013-01-26T10:42:36.000Z</time>
      </trkpt>
      <trkpt lat="43.63271" lon="5.58763">
        <ele>258.60000610352</ele>
        <time>2013-01-26T10:42:45.000Z</time>
      </trkpt>
      <trkpt lat="43.63226" lon="5.58739">
        <ele>260</ele>
        <time>2013-01-26T10:42:54.000Z</time>
      </trkpt>
      <trkpt lat="43.63179" lon="5.58721">
        <ele>262.20001220703</ele>
        <time>2013-01-26T10:43:03.000Z</time>
      </trkpt>
      <trkpt lat="43.63134" lon="5.5874">
        <ele>265.39999389648</ele>
        <time>2013-01-26T10:43:12.000Z</time>
      </trkpt>
      <trkpt lat="43.63111" lon="5.58792">
        <ele>267</ele>
        <time>2013-01-26T10:43:21.000Z</time>
      </trkpt>
      <trkpt lat="43.6307" lon="5.58832">
        <ele>267</ele>
        <time>2013-01-26T10:43:31.000Z</time>
      </trkpt>
      <trkpt lat="43.63042" lon="5.58882">
        <ele>270.20001220703</ele>
        <time>2013-01-26T10:43:42.000Z</time>
      </trkpt>
      <trkpt lat="43.62996" lon="5.58867">
        <ele>272.79998779297</ele>
        <time>2013-01-26T10:43:54.000Z</time>
      </trkpt>
      <trkpt lat="43.62954" lon="5.58843">
        <ele>274.79998779297</ele>
        <time>2013-01-26T10:44:06.000Z</time>
      </trkpt>
      <trkpt lat="43.62914" lon="5.58813">
        <ele>278</ele>
        <time>2013-01-26T10:44:17.000Z</time>
      </trkpt>
      <trkpt lat="43.62868" lon="5.58792">
        <ele>281.39999389648</ele>
        <time>2013-01-26T10:44:29.000Z</time>
      </trkpt>
      <trkpt lat="43.62821" lon="5.58782">
        <ele>283</ele>
        <time>2013-01-26T10:44:40.000Z</time>
      </trkpt>
      <trkpt lat="43.62778" lon="5.5876">
        <ele>283.60000610352</ele>
        <time>2013-01-26T10:44:51.000Z</time>
      </trkpt>
      <trkpt lat="43.62757" lon="5.58707">
        <ele>284.79998779297</ele>
        <time>2013-01-26T10:45:02.000Z</time>
      </trkpt>
      <trkpt lat="43.62738" lon="5.5865">
        <ele>288.79998779297</ele>
        <time>2013-01-26T10:45:15.000Z</time>
      </trkpt>
      <trkpt lat="43.62698" lon="5.58614">
        <ele>292.39999389648</ele>
        <time>2013-01-26T10:45:35.000Z</time>
      </trkpt>
      <trkpt lat="43.6267" lon="5.58562">
        <ele>294.39999389648</ele>
        <time>2013-01-26T10:45:51.000Z</time>
      </trkpt>
      <trkpt lat="43.62637" lon="5.58511">
        <ele>298.39999389648</ele>
        <time>2013-01-26T10:46:04.000Z</time>
      </trkpt>
      <trkpt lat="43.62598" lon="5.58469">
        <ele>299.60000610352</ele>
        <time>2013-01-26T10:46:16.000Z</time>
      </trkpt>
      <trkpt lat="43.62555" lon="5.58444">
        <ele>301</ele>
        <time>2013-01-26T10:46:27.000Z</time>
      </trkpt>
      <trkpt lat="43.6252" lon="5.584">
        <ele>302.79998779297</ele>
        <time>2013-01-26T10:46:38.000Z</time>
      </trkpt>
      <trkpt lat="43.62481" lon="5.58367">
        <ele>304.60000610352</ele>
        <time>2013-01-26T10:46:48.000Z</time>
      </trkpt>
      <trkpt lat="43.62445" lon="5.58321">
        <ele>306.79998779297</ele>
        <time>2013-01-26T10:46:59.000Z</time>
      </trkpt>
      <trkpt lat="43.62413" lon="5.58272">
        <ele>305.79998779297</ele>
        <time>2013-01-26T10:47:10.000Z</time>
      </trkpt>
      <trkpt lat="43.62367" lon="5.5825">
        <ele>304.39999389648</ele>
        <time>2013-01-26T10:47:20.000Z</time>
      </trkpt>
      <trkpt lat="43.62322" lon="5.58229">
        <ele>308.39999389648</ele>
        <time>2013-01-26T10:47:31.000Z</time>
      </trkpt>
      <trkpt lat="43.62274" lon="5.58242">
        <ele>307.39999389648</ele>
        <time>2013-01-26T10:47:42.000Z</time>
      </trkpt>
      <trkpt lat="43.62227" lon="5.58238">
        <ele>310</ele>
        <time>2013-01-26T10:47:53.000Z</time>
      </trkpt>
      <trkpt lat="43.62182" lon="5.58228">
        <ele>313.79998779297</ele>
        <time>2013-01-26T10:48:03.000Z</time>
      </trkpt>
      <trkpt lat="43.62135" lon="5.58228">
        <ele>314.39999389648</ele>
        <time>2013-01-26T10:48:13.000Z</time>
      </trkpt>
      <trkpt lat="43.62088" lon="5.58239">
        <ele>313</ele>
        <time>2013-01-26T10:48:24.000Z</time>
      </trkpt>
      <trkpt lat="43.62047" lon="5.58233">
        <ele>315.79998779297</ele>
        <time>2013-01-26T10:48:36.000Z</time>
      </trkpt>
      <trkpt lat="43.62035" lon="5.58171">
        <ele>320.60000610352</ele>
        <time>2013-01-26T10:48:49.000Z</time>
      </trkpt>
      <trkpt lat="43.61989" lon="5.58155">
        <ele>324</ele>
        <time>2013-01-26T10:49:02.000Z</time>
      </trkpt>
      <trkpt lat="43.61944" lon="5.58153">
        <ele>328.39999389648</ele>
        <time>2013-01-26T10:49:15.000Z</time>
      </trkpt>
      <trkpt lat="43.61899" lon="5.58168">
        <ele>329.79998779297</ele>
        <time>2013-01-26T10:49:28.000Z</time>
      </trkpt>
      <trkpt lat="43.61855" lon="5.58164">
        <ele>334.20001220703</ele>
        <time>2013-01-26T10:49:41.000Z</time>
      </trkpt>
      <trkpt lat="43.6182" lon="5.58124">
        <ele>341.39999389648</ele>
        <time>2013-01-26T10:49:53.000Z</time>
      </trkpt>
      <trkpt lat="43.61792" lon="5.58088">
        <ele>344.20001220703</ele>
        <time>2013-01-26T10:50:05.000Z</time>
      </trkpt>
      <trkpt lat="43.61752" lon="5.58089">
        <ele>347</ele>
        <time>2013-01-26T10:50:18.000Z</time>
      </trkpt>
      <trkpt lat="43.61719" lon="5.58047">
        <ele>356</ele>
        <time>2013-01-26T10:50:32.000Z</time>
      </trkpt>
      <trkpt lat="43.61691" lon="5.57998">
        <ele>355.79998779297</ele>
        <time>2013-01-26T10:50:47.000Z</time>
      </trkpt>
      <trkpt lat="43.61648" lon="5.57985">
        <ele>358.39999389648</ele>
        <time>2013-01-26T10:51:03.000Z</time>
      </trkpt>
      <trkpt lat="43.61616" lon="5.57939">
        <ele>362.39999389648</ele>
        <time>2013-01-26T10:51:19.000Z</time>
      </trkpt>
      <trkpt lat="43.61575" lon="5.57906">
        <ele>361.20001220703</ele>
        <time>2013-01-26T10:51:35.000Z</time>
      </trkpt>
      <trkpt lat="43.61562" lon="5.57844">
        <ele>367.39999389648</ele>
        <time>2013-01-26T10:51:50.000Z</time>
      </trkpt>
      <trkpt lat="43.61534" lon="5.57801">
        <ele>372.20001220703</ele>
        <time>2013-01-26T10:52:04.000Z</time>
      </trkpt>
      <trkpt lat="43.6151" lon="5.57755">
        <ele>370.60000610352</ele>
        <time>2013-01-26T10:52:19.000Z</time>
      </trkpt>
      <trkpt lat="43.61468" lon="5.57725">
        <ele>379</ele>
        <time>2013-01-26T10:52:36.000Z</time>
      </trkpt>
      <trkpt lat="43.61434" lon="5.57682">
        <ele>382.20001220703</ele>
        <time>2013-01-26T10:52:51.000Z</time>
      </trkpt>
      <trkpt lat="43.61415" lon="5.57625">
        <ele>390</ele>
        <time>2013-01-26T10:53:06.000Z</time>
      </trkpt>
      <trkpt lat="43.61377" lon="5.57654">
        <ele>386.60000610352</ele>
        <time>2013-01-26T10:53:22.000Z</time>
      </trkpt>
      <trkpt lat="43.61338" lon="5.57631">
        <ele>393.20001220703</ele>
        <time>2013-01-26T10:53:38.000Z</time>
      </trkpt>
      <trkpt lat="43.61294" lon="5.57646">
        <ele>392.20001220703</ele>
        <time>2013-01-26T10:53:54.000Z</time>
      </trkpt>
      <trkpt lat="43.61252" lon="5.57646">
        <ele>393</ele>
        <time>2013-01-26T10:54:10.000Z</time>
      </trkpt>
      <trkpt lat="43.61216" lon="5.57606">
        <ele>394.39999389648</ele>
        <time>2013-01-26T10:54:26.000Z</time>
      </trkpt>
      <trkpt lat="43.61171" lon="5.57579">
        <ele>393.20001220703</ele>
        <time>2013-01-26T10:54:40.000Z</time>
      </trkpt>
      <trkpt lat="43.61127" lon="5.57586">
        <ele>394.60000610352</ele>
        <time>2013-01-26T10:54:54.000Z</time>
      </trkpt>
      <trkpt lat="43.61095" lon="5.57547">
        <ele>396.39999389648</ele>
        <time>2013-01-26T10:55:08.000Z</time>
      </trkpt>
      <trkpt lat="43.6105" lon="5.57542">
        <ele>400.60000610352</ele>
        <time>2013-01-26T10:55:23.000Z</time>
      </trkpt>
      <trkpt lat="43.61005" lon="5.57565">
        <ele>403.79998779297</ele>
        <time>2013-01-26T10:55:37.000Z</time>
      </trkpt>
      <trkpt lat="43.60957" lon="5.57565">
        <ele>406.39999389648</ele>
        <time>2013-01-26T10:55:50.000Z</time>
      </trkpt>
      <trkpt lat="43.60921" lon="5.57597">
        <ele>407</ele>
        <time>2013-01-26T10:56:02.000Z</time>
      </trkpt>
      <trkpt lat="43.60881" lon="5.57611">
        <ele>411</ele>
        <time>2013-01-26T10:56:14.000Z</time>
      </trkpt>
      <trkpt lat="43.60837" lon="5.57586">
        <ele>411</ele>
        <time>2013-01-26T10:56:28.000Z</time>
      </trkpt>
      <trkpt lat="43.60793" lon="5.57571">
        <ele>415.39999389648</ele>
        <time>2013-01-26T10:56:42.000Z</time>
      </trkpt>
      <trkpt lat="43.60752" lon="5.57605">
        <ele>416.39999389648</ele>
        <time>2013-01-26T10:56:56.000Z</time>
      </trkpt>
      <trkpt lat="43.60717" lon="5.57647">
        <ele>417.60000610352</ele>
        <time>2013-01-26T10:57:09.000Z</time>
      </trkpt>
      <trkpt lat="43.60679" lon="5.57638">
        <ele>417.60000610352</ele>
        <time>2013-01-26T10:57:22.000Z</time>
      </trkpt>
      <trkpt lat="43.60651" lon="5.5759">
        <ele>418.60000610352</ele>
        <time>2013-01-26T10:57:37.000Z</time>
      </trkpt>
      <trkpt lat="43.60605" lon="5.57606">
        <ele>423.60000610352</ele>
        <time>2013-01-26T10:57:54.000Z</time>
      </trkpt>
      <trkpt lat="43.60603" lon="5.57669">
        <ele>424</ele>
        <time>2013-01-26T10:58:08.000Z</time>
      </trkpt>
      <trkpt lat="43.60581" lon="5.57724">
        <ele>424.79998779297</ele>
        <time>2013-01-26T10:58:20.000Z</time>
      </trkpt>
      <trkpt lat="43.60537" lon="5.57748">
        <ele>428</ele>
        <time>2013-01-26T10:58:33.000Z</time>
      </trkpt>
      <trkpt lat="43.60492" lon="5.57766">
        <ele>432</ele>
        <time>2013-01-26T10:58:48.000Z</time>
      </trkpt>
      <trkpt lat="43.6052" lon="5.57812">
        <ele>430.79998779297</ele>
        <time>2013-01-26T10:59:06.000Z</time>
      </trkpt>
      <trkpt lat="43.60552" lon="5.57862">
        <ele>433.60000610352</ele>
        <time>2013-01-26T10:59:25.000Z</time>
      </trkpt>
      <trkpt lat="43.60567" lon="5.5792">
        <ele>440</ele>
        <time>2013-01-26T10:59:42.000Z</time>
      </trkpt>
      <trkpt lat="43.60579" lon="5.57979">
        <ele>442.20001220703</ele>
        <time>2013-01-26T11:00:01.000Z</time>
      </trkpt>
      <trkpt lat="43.60598" lon="5.58035">
        <ele>450.39999389648</ele>
        <time>2013-01-26T11:00:29.000Z</time>
      </trkpt>
      <trkpt lat="43.60626" lon="5.58088">
        <ele>460</ele>
        <time>2013-01-26T11:01:08.000Z</time>
      </trkpt>
      <trkpt lat="43.6064" lon="5.58118">
        <ele>464</ele>
        <time>2013-01-26T11:01:47.000Z</time>
      </trkpt>
      <trkpt lat="43.60669" lon="5.58146">
        <ele>465.39999389648</ele>
        <time>2013-01-26T11:02:24.000Z</time>
      </trkpt>
      <trkpt lat="43.60681" lon="5.58206">
        <ele>463.60000610352</ele>
        <time>2013-01-26T11:02:46.000Z</time>
      </trkpt>
      <trkpt lat="43.60681" lon="5.58272">
        <ele>462.79998779297</ele>
        <time>2013-01-26T11:02:56.000Z</time>
      </trkpt>
      <trkpt lat="43.60713" lon="5.58328">
        <ele>457.60000610352</ele>
        <time>2013-01-26T11:03:02.000Z</time>
      </trkpt>
      <trkpt lat="43.60748" lon="5.5837">
        <ele>452.79998779297</ele>
        <time>2013-01-26T11:03:09.000Z</time>
      </trkpt>
      <trkpt lat="43.60777" lon="5.58416">
        <ele>453.79998779297</ele>
        <time>2013-01-26T11:03:36.000Z</time>
      </trkpt>
      <trkpt lat="43.60818" lon="5.58452">
        <ele>452.79998779297</ele>
        <time>2013-01-26T11:03:48.000Z</time>
      </trkpt>
      <trkpt lat="43.60852" lon="5.58497">
        <ele>447.79998779297</ele>
        <time>2013-01-26T11:03:58.000Z</time>
      </trkpt>
      <trkpt lat="43.60891" lon="5.58529">
        <ele>446.39999389648</ele>
        <time>2013-01-26T11:04:09.000Z</time>
      </trkpt>
      <trkpt lat="43.60928" lon="5.58577">
        <ele>440.79998779297</ele>
        <time>2013-01-26T11:04:19.000Z</time>
      </trkpt>
      <trkpt lat="43.60967" lon="5.58608">
        <ele>434.60000610352</ele>
        <time>2013-01-26T11:04:26.000Z</time>
      </trkpt>
      <trkpt lat="43.61014" lon="5.58598">
        <ele>431</ele>
        <time>2013-01-26T11:04:33.000Z</time>
      </trkpt>
      <trkpt lat="43.61034" lon="5.5866">
        <ele>422.60000610352</ele>
        <time>2013-01-26T11:04:40.000Z</time>
      </trkpt>
      <trkpt lat="43.61068" lon="5.587">
        <ele>414.20001220703</ele>
        <time>2013-01-26T11:04:47.000Z</time>
      </trkpt>
      <trkpt lat="43.61113" lon="5.58739">
        <ele>407.39999389648</ele>
        <time>2013-01-26T11:04:53.000Z</time>
      </trkpt>
      <trkpt lat="43.6116" lon="5.58767">
        <ele>402</ele>
        <time>2013-01-26T11:04:58.000Z</time>
      </trkpt>
      <trkpt lat="43.61202" lon="5.58791">
        <ele>398.20001220703</ele>
        <time>2013-01-26T11:05:03.000Z</time>
      </trkpt>
      <trkpt lat="43.61244" lon="5.5881">
        <ele>395.39999389648</ele>
        <time>2013-01-26T11:05:08.000Z</time>
      </trkpt>
      <trkpt lat="43.6129" lon="5.58847">
        <ele>389.60000610352</ele>
        <time>2013-01-26T11:05:14.000Z</time>
      </trkpt>
      <trkpt lat="43.61338" lon="5.58867">
        <ele>383.39999389648</ele>
        <time>2013-01-26T11:05:19.000Z</time>
      </trkpt>
      <trkpt lat="43.61381" lon="5.58886">
        <ele>377.20001220703</ele>
        <time>2013-01-26T11:05:24.000Z</time>
      </trkpt>
      <trkpt lat="43.61418" lon="5.58922">
        <ele>371.79998779297</ele>
        <time>2013-01-26T11:05:29.000Z</time>
      </trkpt>
      <trkpt lat="43.61465" lon="5.58932">
        <ele>368.20001220703</ele>
        <time>2013-01-26T11:05:34.000Z</time>
      </trkpt>
      <trkpt lat="43.61507" lon="5.5895">
        <ele>364.60000610352</ele>
        <time>2013-01-26T11:05:39.000Z</time>
      </trkpt>
      <trkpt lat="43.61553" lon="5.58972">
        <ele>363</ele>
        <time>2013-01-26T11:05:47.000Z</time>
      </trkpt>
      <trkpt lat="43.61597" lon="5.58999">
        <ele>364</ele>
        <time>2013-01-26T11:05:57.000Z</time>
      </trkpt>
      <trkpt lat="43.61644" lon="5.58992">
        <ele>361</ele>
        <time>2013-01-26T11:06:04.000Z</time>
      </trkpt>
      <trkpt lat="43.61689" lon="5.58994">
        <ele>358</ele>
        <time>2013-01-26T11:06:13.000Z</time>
      </trkpt>
      <trkpt lat="43.61727" lon="5.59024">
        <ele>356.60000610352</ele>
        <time>2013-01-26T11:06:41.000Z</time>
      </trkpt>
      <trkpt lat="43.61765" lon="5.59065">
        <ele>355.60000610352</ele>
        <time>2013-01-26T11:06:50.000Z</time>
      </trkpt>
      <trkpt lat="43.61814" lon="5.59081">
        <ele>353.20001220703</ele>
        <time>2013-01-26T11:06:58.000Z</time>
      </trkpt>
      <trkpt lat="43.61858" lon="5.59108">
        <ele>349.39999389648</ele>
        <time>2013-01-26T11:07:05.000Z</time>
      </trkpt>
      <trkpt lat="43.61896" lon="5.5914">
        <ele>345</ele>
        <time>2013-01-26T11:07:11.000Z</time>
      </trkpt>
      <trkpt lat="43.61946" lon="5.59163">
        <ele>340.20001220703</ele>
        <time>2013-01-26T11:07:17.000Z</time>
      </trkpt>
      <trkpt lat="43.61986" lon="5.59202">
        <ele>337.20001220703</ele>
        <time>2013-01-26T11:07:23.000Z</time>
      </trkpt>
      <trkpt lat="43.61986" lon="5.59256">
        <ele>336.20001220703</ele>
        <time>2013-01-26T11:07:33.000Z</time>
      </trkpt>
      <trkpt lat="43.61958" lon="5.59313">
        <ele>332.39999389648</ele>
        <time>2013-01-26T11:07:43.000Z</time>
      </trkpt>
      <trkpt lat="43.61964" lon="5.59374">
        <ele>329.39999389648</ele>
        <time>2013-01-26T11:07:53.000Z</time>
      </trkpt>
      <trkpt lat="43.61943" lon="5.59433">
        <ele>323.39999389648</ele>
        <time>2013-01-26T11:08:02.000Z</time>
      </trkpt>
      <trkpt lat="43.61917" lon="5.59494">
        <ele>315.60000610352</ele>
        <time>2013-01-26T11:08:10.000Z</time>
      </trkpt>
      <trkpt lat="43.61906" lon="5.59562">
        <ele>307.79998779297</ele>
        <time>2013-01-26T11:08:17.000Z</time>
      </trkpt>
      <trkpt lat="43.6189" lon="5.59612">
        <ele>305.39999389648</ele>
        <time>2013-01-26T11:08:27.000Z</time>
      </trkpt>
      <trkpt lat="43.61937" lon="5.59599">
        <ele>302.20001220703</ele>
        <time>2013-01-26T11:08:40.000Z</time>
      </trkpt>
      <trkpt lat="43.61988" lon="5.59606">
        <ele>302</ele>
        <time>2013-01-26T11:08:50.000Z</time>
      </trkpt>
      <trkpt lat="43.62033" lon="5.59603">
        <ele>301.60000610352</ele>
        <time>2013-01-26T11:08:58.000Z</time>
      </trkpt>
      <trkpt lat="43.62081" lon="5.59609">
        <ele>300.39999389648</ele>
        <time>2013-01-26T11:09:06.000Z</time>
      </trkpt>
      <trkpt lat="43.62127" lon="5.59594">
        <ele>300.79998779297</ele>
        <time>2013-01-26T11:09:13.000Z</time>
      </trkpt>
      <trkpt lat="43.62178" lon="5.59589">
        <ele>301</ele>
        <time>2013-01-26T11:09:20.000Z</time>
      </trkpt>
      <trkpt lat="43.62223" lon="5.59592">
        <ele>302.60000610352</ele>
        <time>2013-01-26T11:09:26.000Z</time>
      </trkpt>
      <trkpt lat="43.62268" lon="5.59632">
        <ele>298.39999389648</ele>
        <time>2013-01-26T11:09:32.000Z</time>
      </trkpt>
      <trkpt lat="43.62308" lon="5.59668">
        <ele>293</ele>
        <time>2013-01-26T11:09:37.000Z</time>
      </trkpt>
      <trkpt lat="43.62349" lon="5.59694">
        <ele>293.20001220703</ele>
        <time>2013-01-26T11:09:42.000Z</time>
      </trkpt>
      <trkpt lat="43.62393" lon="5.5973">
        <ele>290</ele>
        <time>2013-01-26T11:09:48.000Z</time>
      </trkpt>
      <trkpt lat="43.6243" lon="5.59773">
        <ele>288.39999389648</ele>
        <time>2013-01-26T11:09:54.000Z</time>
      </trkpt>
      <trkpt lat="43.62468" lon="5.59811">
        <ele>292.60000610352</ele>
        <time>2013-01-26T11:10:01.000Z</time>
      </trkpt>
      <trkpt lat="43.62507" lon="5.59837">
        <ele>296.39999389648</ele>
        <time>2013-01-26T11:10:14.000Z</time>
      </trkpt>
      <trkpt lat="43.62499" lon="5.59895">
        <ele>296.60000610352</ele>
        <time>2013-01-26T11:10:29.000Z</time>
      </trkpt>
      <trkpt lat="43.62494" lon="5.59958">
        <ele>296.79998779297</ele>
        <time>2013-01-26T11:10:40.000Z</time>
      </trkpt>
      <trkpt lat="43.6248" lon="5.60021">
        <ele>296.79998779297</ele>
        <time>2013-01-26T11:10:51.000Z</time>
      </trkpt>
      <trkpt lat="43.62494" lon="5.60082">
        <ele>299.39999389648</ele>
        <time>2013-01-26T11:11:04.000Z</time>
      </trkpt>
      <trkpt lat="43.62487" lon="5.60147">
        <ele>297.39999389648</ele>
        <time>2013-01-26T11:11:19.000Z</time>
      </trkpt>
      <trkpt lat="43.62509" lon="5.6021">
        <ele>295.79998779297</ele>
        <time>2013-01-26T11:11:29.000Z</time>
      </trkpt>
      <trkpt lat="43.62544" lon="5.60253">
        <ele>293.79998779297</ele>
        <time>2013-01-26T11:11:36.000Z</time>
      </trkpt>
      <trkpt lat="43.62587" lon="5.60288">
        <ele>291</ele>
        <time>2013-01-26T11:11:43.000Z</time>
      </trkpt>
      <trkpt lat="43.62613" lon="5.60335">
        <ele>288.20001220703</ele>
        <time>2013-01-26T11:11:49.000Z</time>
      </trkpt>
      <trkpt lat="43.62637" lon="5.60389">
        <ele>284</ele>
        <time>2013-01-26T11:11:55.000Z</time>
      </trkpt>
      <trkpt lat="43.62648" lon="5.60451">
        <ele>280.79998779297</ele>
        <time>2013-01-26T11:12:01.000Z</time>
      </trkpt>
      <trkpt lat="43.62674" lon="5.60508">
        <ele>277.79998779297</ele>
        <time>2013-01-26T11:12:08.000Z</time>
      </trkpt>
      <trkpt lat="43.62708" lon="5.60548">
        <ele>276.60000610352</ele>
        <time>2013-01-26T11:12:17.000Z</time>
      </trkpt>
      <trkpt lat="43.62743" lon="5.60598">
        <ele>275</ele>
        <time>2013-01-26T11:12:27.000Z</time>
      </trkpt>
      <trkpt lat="43.6278" lon="5.60638">
        <ele>273.20001220703</ele>
        <time>2013-01-26T11:12:34.000Z</time>
      </trkpt>
      <trkpt lat="43.62821" lon="5.60682">
        <ele>272.39999389648</ele>
        <time>2013-01-26T11:12:41.000Z</time>
      </trkpt>
      <trkpt lat="43.62845" lon="5.60729">
        <ele>274.20001220703</ele>
        <time>2013-01-26T11:12:49.000Z</time>
      </trkpt>
      <trkpt lat="43.62852" lon="5.60797">
        <ele>277.39999389648</ele>
        <time>2013-01-26T11:12:57.000Z</time>
      </trkpt>
      <trkpt lat="43.62848" lon="5.60864">
        <ele>277</ele>
        <time>2013-01-26T11:13:04.000Z</time>
      </trkpt>
      <trkpt lat="43.62876" lon="5.60912">
        <ele>275.60000610352</ele>
        <time>2013-01-26T11:13:11.000Z</time>
      </trkpt>
      <trkpt lat="43.62889" lon="5.60971">
        <ele>272.39999389648</ele>
        <time>2013-01-26T11:13:17.000Z</time>
      </trkpt>
      <trkpt lat="43.62881" lon="5.61042">
        <ele>267.39999389648</ele>
        <time>2013-01-26T11:13:23.000Z</time>
      </trkpt>
      <trkpt lat="43.62881" lon="5.6111">
        <ele>263.60000610352</ele>
        <time>2013-01-26T11:13:29.000Z</time>
      </trkpt>
      <trkpt lat="43.6291" lon="5.61158">
        <ele>261.39999389648</ele>
        <time>2013-01-26T11:13:35.000Z</time>
      </trkpt>
      <trkpt lat="43.62951" lon="5.612">
        <ele>262.39999389648</ele>
        <time>2013-01-26T11:13:42.000Z</time>
      </trkpt>
      <trkpt lat="43.62974" lon="5.61249">
        <ele>260.60000610352</ele>
        <time>2013-01-26T11:13:54.000Z</time>
      </trkpt>
      <trkpt lat="43.6299" lon="5.61308">
        <ele>260</ele>
        <time>2013-01-26T11:14:14.000Z</time>
      </trkpt>
      <trkpt lat="43.63002" lon="5.61369">
        <ele>261.39999389648</ele>
        <time>2013-01-26T11:14:35.000Z</time>
      </trkpt>
      <trkpt lat="43.63021" lon="5.61432">
        <ele>263.60000610352</ele>
        <time>2013-01-26T11:15:03.000Z</time>
      </trkpt>
      <trkpt lat="43.63031" lon="5.615">
        <ele>264.60000610352</ele>
        <time>2013-01-26T11:15:20.000Z</time>
      </trkpt>
      <trkpt lat="43.63046" lon="5.61561">
        <ele>266</ele>
        <time>2013-01-26T11:15:32.000Z</time>
      </trkpt>
      <trkpt lat="43.63084" lon="5.61605">
        <ele>264.60000610352</ele>
        <time>2013-01-26T11:15:41.000Z</time>
      </trkpt>
      <trkpt lat="43.63123" lon="5.61642">
        <ele>261.79998779297</ele>
        <time>2013-01-26T11:15:49.000Z</time>
      </trkpt>
      <trkpt lat="43.63158" lon="5.6169">
        <ele>257.79998779297</ele>
        <time>2013-01-26T11:15:57.000Z</time>
      </trkpt>
      <trkpt lat="43.63169" lon="5.61744">
        <ele>255</ele>
        <time>2013-01-26T11:16:07.000Z</time>
      </trkpt>
      <trkpt lat="43.63211" lon="5.61754">
        <ele>253.39999389648</ele>
        <time>2013-01-26T11:16:16.000Z</time>
      </trkpt>
      <trkpt lat="43.63238" lon="5.61813">
        <ele>253</ele>
        <time>2013-01-26T11:16:23.000Z</time>
      </trkpt>
      <trkpt lat="43.63266" lon="5.6187">
        <ele>253.60000610352</ele>
        <time>2013-01-26T11:16:30.000Z</time>
      </trkpt>
      <trkpt lat="43.63296" lon="5.61929">
        <ele>253.19999694824</ele>
        <time>2013-01-26T11:16:37.000Z</time>
      </trkpt>
      <trkpt lat="43.63325" lon="5.61983">
        <ele>254.39999389648</ele>
        <time>2013-01-26T11:16:44.000Z</time>
      </trkpt>
      <trkpt lat="43.63348" lon="5.6204">
        <ele>255.39999389648</ele>
        <time>2013-01-26T11:16:51.000Z</time>
      </trkpt>
      <trkpt lat="43.63368" lon="5.62102">
        <ele>257.20001220703</ele>
        <time>2013-01-26T11:16:59.000Z</time>
      </trkpt>
      <trkpt lat="43.63412" lon="5.62128">
        <ele>258</ele>
        <time>2013-01-26T11:17:07.000Z</time>
      </trkpt>
      <trkpt lat="43.63443" lon="5.62179">
        <ele>257.79998779297</ele>
        <time>2013-01-26T11:17:17.000Z</time>
      </trkpt>
      <trkpt lat="43.63476" lon="5.62219">
        <ele>256.60000610352</ele>
        <time>2013-01-26T11:17:26.000Z</time>
      </trkpt>
      <trkpt lat="43.635" lon="5.62265">
        <ele>255.80000305176</ele>
        <time>2013-01-26T11:17:36.000Z</time>
      </trkpt>
      <trkpt lat="43.63547" lon="5.62265">
        <ele>252.60000610352</ele>
        <time>2013-01-26T11:17:45.000Z</time>
      </trkpt>
      <trkpt lat="43.63592" lon="5.62274">
        <ele>249.80000305176</ele>
        <time>2013-01-26T11:17:53.000Z</time>
      </trkpt>
      <trkpt lat="43.6357" lon="5.62329">
        <ele>251</ele>
        <time>2013-01-26T11:18:00.000Z</time>
      </trkpt>
      <trkpt lat="43.63547" lon="5.62393">
        <ele>247</ele>
        <time>2013-01-26T11:18:07.000Z</time>
      </trkpt>
      <trkpt lat="43.63532" lon="5.62456">
        <ele>246.80000305176</ele>
        <time>2013-01-26T11:18:16.000Z</time>
      </trkpt>
      <trkpt lat="43.63528" lon="5.62521">
        <ele>248.60000610352</ele>
        <time>2013-01-26T11:18:28.000Z</time>
      </trkpt>
      <trkpt lat="43.63522" lon="5.62587">
        <ele>249</ele>
        <time>2013-01-26T11:18:39.000Z</time>
      </trkpt>
      <trkpt lat="43.63516" lon="5.62651">
        <ele>251</ele>
        <time>2013-01-26T11:18:49.000Z</time>
      </trkpt>
      <trkpt lat="43.63514" lon="5.62712">
        <ele>252.39999389648</ele>
        <time>2013-01-26T11:18:59.000Z</time>
      </trkpt>
      <trkpt lat="43.63514" lon="5.62777">
        <ele>254</ele>
        <time>2013-01-26T11:19:11.000Z</time>
      </trkpt>
      <trkpt lat="43.63514" lon="5.62843">
        <ele>255.39999389648</ele>
        <time>2013-01-26T11:19:22.000Z</time>
      </trkpt>
      <trkpt lat="43.63514" lon="5.62913">
        <ele>255.39999389648</ele>
        <time>2013-01-26T11:19:33.000Z</time>
      </trkpt>
      <trkpt lat="43.63508" lon="5.62977">
        <ele>254.39999389648</ele>
        <time>2013-01-26T11:19:42.000Z</time>
      </trkpt>
      <trkpt lat="43.63503" lon="5.63044">
        <ele>255.60000610352</ele>
        <time>2013-01-26T11:19:52.000Z</time>
      </trkpt>
      <trkpt lat="43.63508" lon="5.63109">
        <ele>256.79998779297</ele>
        <time>2013-01-26T11:20:03.000Z</time>
      </trkpt>
      <trkpt lat="43.63535" lon="5.63158">
        <ele>257.60000610352</ele>
        <time>2013-01-26T11:20:14.000Z</time>
      </trkpt>
      <trkpt lat="43.63575" lon="5.6319">
        <ele>259.60000610352</ele>
        <time>2013-01-26T11:20:23.000Z</time>
      </trkpt>
      <trkpt lat="43.63617" lon="5.63223">
        <ele>260</ele>
        <time>2013-01-26T11:20:32.000Z</time>
      </trkpt>
      <trkpt lat="43.63658" lon="5.6326">
        <ele>261</ele>
        <time>2013-01-26T11:20:40.000Z</time>
      </trkpt>
      <trkpt lat="43.63691" lon="5.63304">
        <ele>259.60000610352</ele>
        <time>2013-01-26T11:20:48.000Z</time>
      </trkpt>
      <trkpt lat="43.63673" lon="5.63364">
        <ele>261.60000610352</ele>
        <time>2013-01-26T11:21:01.000Z</time>
      </trkpt>
      <trkpt lat="43.63652" lon="5.63427">
        <ele>262.79998779297</ele>
        <time>2013-01-26T11:21:09.000Z</time>
      </trkpt>
      <trkpt lat="43.63645" lon="5.63492">
        <ele>261.39999389648</ele>
        <time>2013-01-26T11:21:16.000Z</time>
      </trkpt>
      <trkpt lat="43.63624" lon="5.63554">
        <ele>263.39999389648</ele>
        <time>2013-01-26T11:21:24.000Z</time>
      </trkpt>
      <trkpt lat="43.63605" lon="5.63613">
        <ele>263.79998779297</ele>
        <time>2013-01-26T11:21:32.000Z</time>
      </trkpt>
      <trkpt lat="43.63591" lon="5.63672">
        <ele>262.79998779297</ele>
        <time>2013-01-26T11:21:40.000Z</time>
      </trkpt>
      <trkpt lat="43.63587" lon="5.63736">
        <ele>263</ele>
        <time>2013-01-26T11:21:48.000Z</time>
      </trkpt>
      <trkpt lat="43.63585" lon="5.63804">
        <ele>264.79998779297</ele>
        <time>2013-01-26T11:21:57.000Z</time>
      </trkpt>
      <trkpt lat="43.63583" lon="5.63871">
        <ele>266</ele>
        <time>2013-01-26T11:22:08.000Z</time>
      </trkpt>
    </trkseg>
  </trk>
</gpx>